createdAt,value
2018-07-24T00:00:59.458Z,17.37
2018-07-24T00:03:30.550Z,18.43
2018-07-24T00:06:00.808Z,18.87
2018-07-24T00:08:30.132Z,20.17
2018-07-24T00:10:59.546Z,18.27
2018-07-24T00:13:29.000Z,18.80
2018-07-24T00:15:58.527Z,20.20
2018-07-24T00:18:27.494Z,20.00
2018-07-24T00:20:56.796Z,20.00
2018-07-24T00:23:26.181Z,17.87
2018-07-24T00:25:55.559Z,18.00
2018-07-24T00:28:24.915Z,18.30
2018-07-24T00:30:54.279Z,20.60
2018-07-24T00:33:23.633Z,19.90
2018-07-24T00:35:53.061Z,18.73
2018-07-24T00:38:22.420Z,20.30
2018-07-24T00:40:52.152Z,19.60
2018-07-24T00:43:21.513Z,18.50
2018-07-24T00:45:50.928Z,18.40
2018-07-24T00:48:20.254Z,17.70
2018-07-24T00:50:49.649Z,19.83
2018-07-24T00:53:18.999Z,19.07
2018-07-24T00:55:47.991Z,21.13
2018-07-24T00:58:17.271Z,19.30
2018-07-24T01:00:46.658Z,18.93
2018-07-24T01:03:16.073Z,20.30
2018-07-24T01:05:45.499Z,19.63
2018-07-24T01:08:14.498Z,20.80
2018-07-24T01:10:43.806Z,20.07
2018-07-24T01:13:13.183Z,22.33
2018-07-24T01:15:42.177Z,22.17
2018-07-24T01:18:11.463Z,21.23
2018-07-24T01:20:40.811Z,20.43
2018-07-24T01:23:10.176Z,22.07
2018-07-24T01:25:39.154Z,20.77
2018-07-24T01:28:08.160Z,20.40
2018-07-24T01:30:37.512Z,20.50
2018-07-24T01:33:06.912Z,20.17
2018-07-24T01:35:36.487Z,21.37
2018-07-24T01:38:05.888Z,22.33
2018-07-24T01:40:35.273Z,22.20
2018-07-24T01:43:04.634Z,21.33
2018-07-24T01:45:34.040Z,21.90
2018-07-24T01:48:03.360Z,20.50
2018-07-24T01:50:32.748Z,22.77
2018-07-24T01:53:02.157Z,21.53
2018-07-24T01:55:31.162Z,22.47
2018-07-24T01:58:00.400Z,22.87
2018-07-24T02:00:29.809Z,23.60
2018-07-24T02:02:59.189Z,24.60
2018-07-24T02:05:28.570Z,25.13
2018-07-24T02:07:57.566Z,26.07
2018-07-24T02:10:26.573Z,25.50
2018-07-24T02:12:55.812Z,23.80
2018-07-24T02:15:25.210Z,22.70
2018-07-24T02:17:54.571Z,22.20
2018-07-24T02:20:24.000Z,24.30
2018-07-24T02:22:53.375Z,23.27
2018-07-24T02:25:22.816Z,23.10
2018-07-24T02:27:52.163Z,25.33
2018-07-24T02:30:21.515Z,23.53
2018-07-24T02:32:51.336Z,25.13
2018-07-24T02:35:20.740Z,21.67
2018-07-24T02:37:50.102Z,22.17
2018-07-24T02:40:19.099Z,26.27
2018-07-24T02:42:48.401Z,26.27
2018-07-24T02:45:17.778Z,24.23
2018-07-24T02:47:47.148Z,24.47
2018-07-24T02:50:16.499Z,24.67
2018-07-24T02:52:45.884Z,27.13
2018-07-24T02:55:14.870Z,22.37
2018-07-24T02:57:43.803Z,22.97
2018-07-24T03:00:13.159Z,24.40
2018-07-24T03:02:42.563Z,23.43
2018-07-24T03:05:11.924Z,21.30
2018-07-24T03:07:41.324Z,20.90
2018-07-24T03:10:10.699Z,21.90
2018-07-24T03:12:40.074Z,25.10
2018-07-24T03:15:09.446Z,21.77
2018-07-24T03:17:38.833Z,23.13
2018-07-24T03:20:07.796Z,23.10
2018-07-24T03:22:37.128Z,21.90
2018-07-24T03:25:06.589Z,20.97
2018-07-24T03:27:35.994Z,22.80
2018-07-24T03:30:05.784Z,20.30
2018-07-24T03:32:35.267Z,23.40
2018-07-24T03:35:04.661Z,22.10
2018-07-24T03:37:34.057Z,20.40
2018-07-24T03:40:03.488Z,19.23
2018-07-24T03:42:32.844Z,20.50
2018-07-24T03:45:02.299Z,22.60
2018-07-24T03:47:31.645Z,23.03
2018-07-24T03:50:01.025Z,25.90
2018-07-24T03:52:30.377Z,23.27
2018-07-24T03:54:59.771Z,21.30
2018-07-24T03:57:28.734Z,20.70
2018-07-24T03:59:57.992Z,21.50
2018-07-24T04:02:27.357Z,20.57
2018-07-24T04:04:56.676Z,23.00
2018-07-24T04:07:25.996Z,22.23
2018-07-24T04:09:55.381Z,23.47
2018-07-24T04:12:24.686Z,24.93
2018-07-24T04:14:54.151Z,25.83
2018-07-24T04:17:23.467Z,29.00
2018-07-24T04:19:52.824Z,26.90
2018-07-24T04:22:22.246Z,27.43
2018-07-24T04:24:51.601Z,27.63
2018-07-24T04:27:20.571Z,27.03
2018-07-24T04:29:49.411Z,26.50
2018-07-24T04:32:18.705Z,26.80
2018-07-24T04:34:48.025Z,26.73
2018-07-24T04:37:17.483Z,23.43
2018-07-24T04:39:46.442Z,23.80
2018-07-24T04:42:15.350Z,24.97
2018-07-24T04:44:44.610Z,24.53
2018-07-24T04:47:13.995Z,25.27
2018-07-24T04:49:43.323Z,25.53
2018-07-24T04:52:12.652Z,24.90
2018-07-24T04:54:41.968Z,24.80
2018-07-24T04:57:11.323Z,25.23
2018-07-24T04:59:40.650Z,24.07
2018-07-24T05:02:10.101Z,26.37
2018-07-24T05:04:39.471Z,23.13
2018-07-24T05:07:09.332Z,25.80
2018-07-24T05:09:38.706Z,24.53
2018-07-24T05:12:08.039Z,24.83
2018-07-24T05:14:37.388Z,28.53
2018-07-24T05:17:06.710Z,26.83
2018-07-24T05:19:36.060Z,25.13
2018-07-24T05:22:05.420Z,24.70
2018-07-24T05:24:34.786Z,23.10
2018-07-24T05:27:04.163Z,24.67
2018-07-24T05:29:33.507Z,25.27
2018-07-24T05:32:02.816Z,23.40
2018-07-24T05:34:32.143Z,22.90
2018-07-24T05:37:01.462Z,21.93
2018-07-24T05:39:30.906Z,21.33
2018-07-24T05:42:00.239Z,20.10
2018-07-24T05:44:29.563Z,23.60
2018-07-24T05:46:58.887Z,21.77
2018-07-24T05:49:28.255Z,20.57
2018-07-24T05:51:57.692Z,20.40
2018-07-24T05:54:27.085Z,22.30
2018-07-24T05:56:56.031Z,23.40
2018-07-24T05:59:24.929Z,25.93
2018-07-24T06:01:54.205Z,25.50
2018-07-24T06:04:23.543Z,22.07
2018-07-24T06:06:52.882Z,24.93
2018-07-24T06:09:22.243Z,22.50
2018-07-24T06:11:51.608Z,25.07
2018-07-24T06:14:20.992Z,22.57
2018-07-24T06:16:50.377Z,25.10
2018-07-24T06:19:19.703Z,24.57
2018-07-24T06:21:49.113Z,24.00
2018-07-24T06:24:18.410Z,23.13
2018-07-24T06:26:47.526Z,22.27
2018-07-24T06:29:16.760Z,25.63
2018-07-24T06:31:46.095Z,24.80
2018-07-24T06:34:15.659Z,22.40
2018-07-24T06:36:45.008Z,20.97
2018-07-24T06:39:14.566Z,17.00
2018-07-24T06:41:43.947Z,18.77
2018-07-24T06:44:13.377Z,18.30
2018-07-24T06:46:42.923Z,20.30
2018-07-24T06:49:12.278Z,21.30
2018-07-24T06:51:41.718Z,16.83
2018-07-24T06:54:10.993Z,18.50
2018-07-24T06:56:40.388Z,16.10
2018-07-24T06:59:09.711Z,20.20
2018-07-24T07:01:39.051Z,17.60
2018-07-24T07:04:08.014Z,19.73
2018-07-24T07:06:37.389Z,17.43
2018-07-24T07:09:08.583Z,19.17
2018-07-24T07:11:37.896Z,18.57
2018-07-24T07:14:07.069Z,19.67
2018-07-24T07:16:36.307Z,17.03
2018-07-24T07:19:05.641Z,19.00
2018-07-24T07:21:36.059Z,17.50
2018-07-24T07:24:05.529Z,20.43
2018-07-24T07:26:34.858Z,17.73
2018-07-24T07:29:04.704Z,17.00
2018-07-24T07:31:34.064Z,18.57
2018-07-24T07:34:03.759Z,16.17
2018-07-24T07:36:33.086Z,15.43
2018-07-24T07:39:02.471Z,16.40
2018-07-24T07:41:31.809Z,17.33
2018-07-24T07:44:01.191Z,14.40
2018-07-24T07:46:30.710Z,17.33
2018-07-24T07:48:59.650Z,17.70
2018-07-24T07:51:29.011Z,17.00
2018-07-24T07:53:58.556Z,15.90
2018-07-24T07:56:27.561Z,15.53
2018-07-24T07:58:56.792Z,15.60
2018-07-24T08:01:26.178Z,17.87
2018-07-24T08:03:55.573Z,16.03
2018-07-24T08:06:24.599Z,14.40
2018-07-24T08:08:54.250Z,15.57
2018-07-24T08:11:23.686Z,13.70
2018-07-24T08:13:52.635Z,15.20
2018-07-24T08:16:21.902Z,14.37
2018-07-24T08:18:51.224Z,15.27
2018-07-24T08:21:20.554Z,12.70
2018-07-24T08:23:49.876Z,12.20
2018-07-24T08:26:19.250Z,12.40
2018-07-24T08:28:48.579Z,11.57
2018-07-24T08:31:17.609Z,11.80
2018-07-24T08:33:46.838Z,12.07
2018-07-24T08:36:16.456Z,12.43
2018-07-24T08:38:45.456Z,12.13
2018-07-24T08:41:14.331Z,12.70
2018-07-24T08:43:43.580Z,13.23
2018-07-24T08:46:12.882Z,13.07
2018-07-24T08:48:41.848Z,11.63
2018-07-24T08:51:11.108Z,13.17
2018-07-24T08:53:40.739Z,12.20
2018-07-24T08:56:09.840Z,12.57
2018-07-24T08:58:39.180Z,11.20
2018-07-24T09:01:08.598Z,9.63
2018-07-24T09:03:38.029Z,10.90
2018-07-24T09:06:07.522Z,10.43
2018-07-24T09:08:36.522Z,8.67
2018-07-24T09:11:05.415Z,10.20
2018-07-24T09:13:34.341Z,10.17
2018-07-24T09:16:03.640Z,10.20
2018-07-24T09:18:33.011Z,10.73
2018-07-24T09:21:01.963Z,9.33
2018-07-24T09:23:31.262Z,8.87
2018-07-24T09:26:00.619Z,8.93
2018-07-24T09:28:29.990Z,9.20
2018-07-24T09:30:59.315Z,9.23
2018-07-24T09:33:28.675Z,8.60
2018-07-24T09:35:58.151Z,9.20
2018-07-24T09:38:27.516Z,10.33
2018-07-24T09:40:56.450Z,10.57
2018-07-24T09:43:25.696Z,8.97
2018-07-24T09:45:55.106Z,9.00
2018-07-24T09:48:24.364Z,10.33
2018-07-24T09:50:53.722Z,9.67
2018-07-24T09:53:23.032Z,10.90
2018-07-24T09:55:52.367Z,9.70
2018-07-24T09:58:21.339Z,10.57
2018-07-24T10:00:55.888Z,10.07
2018-07-24T10:03:25.276Z,9.20
2018-07-24T10:05:54.676Z,8.53
2018-07-24T10:08:23.655Z,9.20
2018-07-24T10:10:52.583Z,9.30
2018-07-24T10:13:21.968Z,9.50
2018-07-24T10:15:51.258Z,8.23
2018-07-24T10:18:20.593Z,8.40
2018-07-24T10:20:49.589Z,8.30
2018-07-24T10:23:18.851Z,8.27
2018-07-24T10:25:48.224Z,8.73
2018-07-24T10:28:17.551Z,8.00
2018-07-24T10:30:47.007Z,6.73
2018-07-24T10:33:16.355Z,6.83
2018-07-24T10:35:45.880Z,7.17
2018-07-24T10:38:14.833Z,8.70
2018-07-24T10:40:44.108Z,8.20
2018-07-24T10:43:13.447Z,8.10
2018-07-24T10:45:42.772Z,7.97
2018-07-24T10:48:12.087Z,8.27
2018-07-24T10:50:42.175Z,7.30
2018-07-24T10:53:12.992Z,8.10
2018-07-24T10:55:42.597Z,6.93
2018-07-24T10:58:11.872Z,8.00
2018-07-24T11:00:41.227Z,8.07
2018-07-24T11:03:10.623Z,6.90
2018-07-24T11:05:39.982Z,7.33
2018-07-24T11:08:09.330Z,7.87
2018-07-24T11:10:38.691Z,7.37
2018-07-24T11:13:08.032Z,7.10
2018-07-24T11:15:37.355Z,6.97
2018-07-24T11:18:06.687Z,7.20
2018-07-24T11:20:36.047Z,6.30
2018-07-24T11:23:05.497Z,7.80
2018-07-24T11:25:34.723Z,7.30
2018-07-24T11:28:04.067Z,6.97
2018-07-24T11:30:33.513Z,7.90
2018-07-24T11:33:03.349Z,6.90
2018-07-24T11:35:32.780Z,7.10
2018-07-24T11:38:02.083Z,7.60
2018-07-24T11:40:31.439Z,7.10
2018-07-24T11:43:00.802Z,7.33
2018-07-24T11:45:30.155Z,7.77
2018-07-24T11:47:59.507Z,7.20
2018-07-24T11:50:28.875Z,7.30
2018-07-24T11:52:58.197Z,7.77
2018-07-24T11:55:27.553Z,8.47
2018-07-24T11:57:56.858Z,8.57
2018-07-24T12:00:26.199Z,8.57
2018-07-24T12:02:55.585Z,8.30
2018-07-24T12:05:25.028Z,7.53
2018-07-24T12:07:54.407Z,9.13
2018-07-24T12:10:23.751Z,8.00
2018-07-24T12:12:52.682Z,8.70
2018-07-24T12:15:22.000Z,7.57
2018-07-24T12:17:51.352Z,8.23
2018-07-24T12:20:20.706Z,9.30
2018-07-24T12:22:50.061Z,8.77
2018-07-24T12:25:19.428Z,8.10
2018-07-24T12:27:48.783Z,9.30
2018-07-24T12:30:18.164Z,7.93
2018-07-24T12:32:47.479Z,8.50
2018-07-24T12:35:16.833Z,7.50
2018-07-24T12:37:46.172Z,7.63
2018-07-24T12:40:16.027Z,7.80
2018-07-24T12:42:45.355Z,7.83
2018-07-24T12:45:14.750Z,7.97
2018-07-24T12:47:44.129Z,8.37
2018-07-24T12:50:13.519Z,8.73
2018-07-24T12:52:42.893Z,8.40
2018-07-24T12:55:12.378Z,8.70
2018-07-24T12:57:41.763Z,8.60
2018-07-24T13:00:11.104Z,8.47
2018-07-24T13:02:40.495Z,8.97
2018-07-24T13:05:09.877Z,8.20
2018-07-24T13:07:39.280Z,8.80
2018-07-24T13:10:08.676Z,7.90
2018-07-24T13:12:38.032Z,9.20
2018-07-24T13:15:07.907Z,9.93
2018-07-24T13:17:37.303Z,9.37
2018-07-24T13:20:06.689Z,9.60
2018-07-24T13:22:36.045Z,10.50
2018-07-24T13:25:05.476Z,9.20
2018-07-24T13:27:34.846Z,9.10
2018-07-24T13:30:04.838Z,9.83
2018-07-24T13:32:34.279Z,9.07
2018-07-24T13:35:03.599Z,8.40
2018-07-24T13:37:33.039Z,10.00
2018-07-24T13:40:02.430Z,9.33
2018-07-24T13:42:31.795Z,9.10
2018-07-24T13:45:01.127Z,9.40
2018-07-24T13:47:30.502Z,9.30
2018-07-24T13:49:59.826Z,8.70
2018-07-24T13:52:29.154Z,8.10
2018-07-24T13:54:58.497Z,9.20
2018-07-24T13:57:27.855Z,9.50
2018-07-24T13:59:57.207Z,9.87
2018-07-24T14:02:26.550Z,9.57
2018-07-24T14:04:55.895Z,9.00
2018-07-24T14:07:25.627Z,9.33
2018-07-24T14:09:54.625Z,9.30
2018-07-24T14:12:24.810Z,9.67
2018-07-24T14:14:53.870Z,8.27
2018-07-24T14:17:23.152Z,8.83
2018-07-24T14:19:52.914Z,7.93
2018-07-24T14:22:22.268Z,8.03
2018-07-24T14:24:51.679Z,8.77
2018-07-24T14:27:21.035Z,9.07
2018-07-24T14:29:50.419Z,8.23
2018-07-24T14:32:19.739Z,7.97
2018-07-24T14:34:49.344Z,7.57
2018-07-24T14:37:18.682Z,8.70
2018-07-24T14:39:48.034Z,8.60
2018-07-24T14:42:17.696Z,8.63
2018-07-24T14:44:47.052Z,8.17
2018-07-24T14:47:16.878Z,8.17
2018-07-24T14:49:46.255Z,8.17
2018-07-24T14:52:15.584Z,7.63
2018-07-24T14:54:44.953Z,8.17
2018-07-24T14:57:14.296Z,8.43
2018-07-24T14:59:43.615Z,8.53
2018-07-24T15:02:12.964Z,8.20
2018-07-24T15:04:42.384Z,8.80
2018-07-24T15:07:11.739Z,8.73
2018-07-24T15:09:41.120Z,8.43
2018-07-24T15:12:10.491Z,7.97
2018-07-24T15:58:21.384Z,8.23
2018-07-24T16:00:51.550Z,7.97
2018-07-24T16:03:21.366Z,6.80
2018-07-24T16:05:51.250Z,7.60
2018-07-24T16:08:20.974Z,7.50
2018-07-24T16:10:50.969Z,7.70
2018-07-24T16:13:20.510Z,8.00
2018-07-24T16:15:51.258Z,7.57
2018-07-24T16:18:21.004Z,7.40
2018-07-24T16:20:51.004Z,7.60
2018-07-24T16:23:20.842Z,6.90
2018-07-24T16:25:51.063Z,7.87
2018-07-24T16:28:20.654Z,7.90
2018-07-24T16:30:49.976Z,7.57
2018-07-24T16:33:19.296Z,7.40
2018-07-24T16:35:48.647Z,7.90
2018-07-24T16:38:17.971Z,7.40
2018-07-24T16:40:47.324Z,7.47
2018-07-24T16:43:16.630Z,7.70
2018-07-24T16:45:46.001Z,7.60
2018-07-24T16:48:15.310Z,6.90
2018-07-24T16:50:44.317Z,7.50
2018-07-24T16:53:13.562Z,8.10
2018-07-24T16:55:42.903Z,7.83
2018-07-24T16:58:12.219Z,6.90
2018-07-24T17:00:41.559Z,7.10
2018-07-24T17:03:10.943Z,7.50
2018-07-24T17:05:39.910Z,7.10
2018-07-24T17:08:09.178Z,7.50
2018-07-24T17:10:38.569Z,7.03
2018-07-24T17:13:07.903Z,7.00
2018-07-24T17:15:37.275Z,6.43
2018-07-24T17:18:06.711Z,7.20
2018-07-24T17:20:36.131Z,6.83
2018-07-24T17:23:05.491Z,7.00
2018-07-24T17:25:34.867Z,6.87
2018-07-24T17:28:04.188Z,6.40
2018-07-24T17:30:33.158Z,7.10
2018-07-24T17:33:02.445Z,6.60
2018-07-24T17:35:31.844Z,7.20
2018-07-24T17:38:01.583Z,6.73
2018-07-24T17:40:31.391Z,6.43
2018-07-24T17:43:00.795Z,6.50
2018-07-24T17:45:30.130Z,7.40
2018-07-24T17:47:59.489Z,7.47
2018-07-24T17:50:28.813Z,6.70
2018-07-24T17:52:58.215Z,6.90
2018-07-24T17:55:27.544Z,6.73
2018-07-24T17:57:56.493Z,6.77
2018-07-24T18:00:25.470Z,6.47
2018-07-24T18:02:54.706Z,6.90
2018-07-24T18:05:24.051Z,7.03
2018-07-24T18:07:53.392Z,7.70
2018-07-24T18:10:22.729Z,6.67
2018-07-24T18:12:53.659Z,6.83
2018-07-24T18:15:23.747Z,6.90
2018-07-24T18:17:53.111Z,7.17
2018-07-24T18:20:22.431Z,6.90
2018-07-24T18:22:51.911Z,7.10
2018-07-24T18:25:21.231Z,7.43
2018-07-24T18:27:50.687Z,7.60
2018-07-24T18:30:19.953Z,7.77
2018-07-24T18:32:49.275Z,7.23
2018-07-24T18:35:18.665Z,7.37
2018-07-24T18:37:48.001Z,6.70
2018-07-24T18:40:17.352Z,7.30
2018-07-24T18:42:46.679Z,7.73
2018-07-24T18:45:16.008Z,7.80
2018-07-24T18:47:45.344Z,7.33
2018-07-24T18:50:14.675Z,7.87
2018-07-24T18:52:43.991Z,8.27
2018-07-24T18:55:13.356Z,8.10
2018-07-24T18:57:42.687Z,7.67
2018-07-24T19:00:12.079Z,8.90
2018-07-24T19:02:41.670Z,9.07
2018-07-24T19:05:11.056Z,8.10
2018-07-24T19:07:40.395Z,8.50
2018-07-24T19:10:09.864Z,8.00
2018-07-24T19:12:39.207Z,7.80
2018-07-24T19:15:09.048Z,8.20
2018-07-24T19:17:38.368Z,15.60
2018-07-24T19:20:07.671Z,16.87
2018-07-24T19:22:37.150Z,12.73
2018-07-24T19:25:06.497Z,9.50
2018-07-24T19:27:35.877Z,8.30
2018-07-24T19:30:05.653Z,8.60
2018-07-24T19:32:35.033Z,8.43
2018-07-24T19:35:04.424Z,29.00
2018-07-24T19:37:33.863Z,25.83
2018-07-24T19:40:02.859Z,15.03
2018-07-24T19:42:32.139Z,10.13
2018-07-24T19:45:01.530Z,8.07
2018-07-24T19:47:30.893Z,9.10
2018-07-24T19:49:59.851Z,8.27
2018-07-24T19:52:28.774Z,7.90
2018-07-24T19:54:57.987Z,8.67
2018-07-24T19:57:27.306Z,10.20
2018-07-24T19:59:56.648Z,9.60
2018-07-24T20:02:26.016Z,8.87
2018-07-24T20:04:55.379Z,9.00
2018-07-24T20:07:24.729Z,9.27
2018-07-24T20:09:54.091Z,9.30
2018-07-24T20:12:23.406Z,10.00
2018-07-24T20:14:52.779Z,10.30
2018-07-24T20:17:22.117Z,9.87
2018-07-24T20:19:51.490Z,9.90
2018-07-24T20:22:20.835Z,9.47
2018-07-24T20:24:50.196Z,10.13
2018-07-24T20:27:19.514Z,8.90
2018-07-24T20:29:48.903Z,9.10
2018-07-24T20:32:18.256Z,9.27
2018-07-24T20:34:47.313Z,9.10
2018-07-24T20:37:16.596Z,9.20
2018-07-24T20:39:46.380Z,9.80
2018-07-24T20:42:15.315Z,9.20
2018-07-24T20:44:44.596Z,10.60
2018-07-24T20:47:13.975Z,10.13
2018-07-24T20:49:43.351Z,9.67
2018-07-24T20:52:12.904Z,9.50
2018-07-24T20:54:42.247Z,10.90
2018-07-24T20:57:11.576Z,10.33
2018-07-24T20:59:40.951Z,9.70
2018-07-24T21:02:09.908Z,9.90
2018-07-24T21:04:39.294Z,9.40
2018-07-24T21:07:08.679Z,9.77
2018-07-24T21:09:38.130Z,9.70
2018-07-24T21:12:07.535Z,9.80
2018-07-24T21:14:36.512Z,10.40
2018-07-24T21:17:05.820Z,10.60
2018-07-24T21:19:35.126Z,10.37
2018-07-24T21:22:04.504Z,11.23
2018-07-24T21:24:33.840Z,10.83
2018-07-24T21:27:03.240Z,11.23
2018-07-24T21:29:32.558Z,11.80
2018-07-24T21:32:01.976Z,10.20
2018-07-24T21:34:31.309Z,11.10
2018-07-24T21:37:00.729Z,11.10
2018-07-24T21:39:30.088Z,11.83
2018-07-24T21:41:59.442Z,11.67
2018-07-24T21:44:28.849Z,11.13
2018-07-24T21:46:58.207Z,12.43
2018-07-24T21:49:27.550Z,11.83
2018-07-24T21:51:56.923Z,12.00
2018-07-24T21:54:26.235Z,12.80
2018-07-24T21:56:55.598Z,12.70
2018-07-24T21:59:24.921Z,11.70
2018-07-24T22:01:54.258Z,13.20
2018-07-24T22:04:23.627Z,13.03
2018-07-24T22:06:52.574Z,13.70
2018-07-24T22:09:21.879Z,14.23
2018-07-24T22:11:51.199Z,13.70
2018-07-24T22:14:20.565Z,14.23
2018-07-24T22:16:49.951Z,14.13
2018-07-24T22:19:18.971Z,13.73
2018-07-24T22:21:48.237Z,14.07
2018-07-24T22:24:17.620Z,13.90
2018-07-24T22:26:46.955Z,13.90
2018-07-24T22:29:16.296Z,14.50
2018-07-24T22:31:45.633Z,16.43
2018-07-24T22:34:14.963Z,40.30
2018-07-24T22:36:44.313Z,20.00
2018-07-24T22:39:13.678Z,15.80
2018-07-24T22:41:43.023Z,33.53
2018-07-24T22:44:12.391Z,15.70
2018-07-24T22:46:41.728Z,14.87
2018-07-24T22:49:11.068Z,15.77
2018-07-24T22:51:40.413Z,16.00
2018-07-24T22:54:09.389Z,15.33
2018-07-24T22:56:38.657Z,15.50
2018-07-24T22:59:08.048Z,14.00
2018-07-24T23:01:37.401Z,14.43
2018-07-24T23:04:06.756Z,13.93
2018-07-24T23:06:36.106Z,13.20
2018-07-24T23:09:07.827Z,13.80
2018-07-24T23:11:37.146Z,14.80
2018-07-24T23:14:06.506Z,14.40
2018-07-24T23:16:35.839Z,13.50
2018-07-24T23:19:04.835Z,14.70
2018-07-24T23:21:34.649Z,15.50
2018-07-24T23:24:04.139Z,15.40
2018-07-24T23:26:33.483Z,14.57
2018-07-24T23:29:02.863Z,13.80
2018-07-24T23:31:32.209Z,14.20
2018-07-24T23:34:01.621Z,14.30
2018-07-24T23:36:30.946Z,12.97
2018-07-24T23:39:00.302Z,13.53
2018-07-24T23:41:29.631Z,13.60
2018-07-24T23:43:58.998Z,13.57
2018-07-24T23:46:28.313Z,13.80
2018-07-24T23:48:57.667Z,15.43
2018-07-24T23:51:26.971Z,15.13
2018-07-24T23:53:56.543Z,13.77
2018-07-24T23:56:25.911Z,15.20
2018-07-24T23:58:55.323Z,13.83
